createdAt,value
2022-08-30T00:00:55.573Z,1016.87
2022-08-30T00:01:55.578Z,1016.85
2022-08-30T00:02:55.666Z,1016.86
2022-08-30T00:03:55.694Z,1016.91
2022-08-30T00:04:55.586Z,1016.89
2022-08-30T00:05:56.453Z,1016.90
2022-08-30T00:06:55.579Z,1016.88
2022-08-30T00:07:55.585Z,1016.89
2022-08-30T00:08:55.591Z,1016.91
2022-08-30T00:09:55.581Z,1016.91
2022-08-30T00:10:55.599Z,1016.96
2022-08-30T00:11:55.591Z,1016.93
2022-08-30T00:12:55.588Z,1016.96
2022-08-30T00:13:55.584Z,1016.94
2022-08-30T00:14:55.585Z,1016.92
2022-08-30T00:15:55.636Z,1016.93
2022-08-30T00:16:55.584Z,1016.93
2022-08-30T00:17:55.585Z,1016.94
2022-08-30T00:18:55.586Z,1016.95
2022-08-30T00:19:55.589Z,1016.94
2022-08-30T00:20:55.585Z,1016.95
2022-08-30T00:21:55.591Z,1016.94
2022-08-30T00:22:55.583Z,1016.93
2022-08-30T00:23:55.591Z,1016.96
2022-08-30T00:24:55.586Z,1016.96
2022-08-30T00:25:55.596Z,1016.96
2022-08-30T00:26:55.590Z,1016.94
2022-08-30T00:27:55.591Z,1016.95
2022-08-30T00:28:55.591Z,1016.93
2022-08-30T00:29:55.596Z,1016.97
2022-08-30T00:30:55.646Z,1016.95
2022-08-30T00:31:55.598Z,1016.97
2022-08-30T00:32:55.593Z,1016.97
2022-08-30T00:33:55.599Z,1016.99
2022-08-30T00:34:55.595Z,1017.00
2022-08-30T00:35:55.599Z,1017.00
2022-08-30T00:36:55.595Z,1017.00
2022-08-30T00:37:55.598Z,1017.03
2022-08-30T00:38:55.599Z,1017.04
2022-08-30T00:39:55.605Z,1017.06
2022-08-30T00:40:55.594Z,1017.00
2022-08-30T00:41:55.603Z,1017.02
2022-08-30T00:42:59.303Z,1017.02
2022-08-30T00:43:55.653Z,1017.05
2022-08-30T00:44:55.604Z,1017.00
2022-08-30T00:45:55.673Z,1017.07
2022-08-30T00:46:55.604Z,1017.05
2022-08-30T00:47:55.602Z,1017.04
2022-08-30T00:48:55.604Z,1017.06
2022-08-30T00:49:55.603Z,1017.03
2022-08-30T00:50:55.613Z,1017.04
2022-08-30T00:51:55.606Z,1016.99
2022-08-30T00:52:55.601Z,1016.99
2022-08-30T00:53:55.603Z,1016.99
2022-08-30T00:54:55.608Z,1016.96
2022-08-30T00:55:55.607Z,1016.96
2022-08-30T00:56:55.612Z,1016.96
2022-08-30T00:57:55.606Z,1016.96
2022-08-30T00:58:55.608Z,1016.93
2022-08-30T00:59:55.614Z,1016.96
2022-08-30T01:00:55.613Z,1016.94
2022-08-30T01:01:55.799Z,1016.95
2022-08-30T01:02:55.665Z,1016.92
2022-08-30T01:03:55.613Z,1016.95
2022-08-30T01:04:55.611Z,1016.94
2022-08-30T01:05:55.613Z,1016.95
2022-08-30T01:06:55.684Z,1016.99
2022-08-30T01:07:55.617Z,1017.00
2022-08-30T01:08:55.613Z,1017.00
2022-08-30T01:09:55.612Z,1017.02
2022-08-30T01:10:55.617Z,1017.06
2022-08-30T01:11:55.613Z,1017.07
2022-08-30T01:12:55.615Z,1017.11
2022-08-30T01:13:55.619Z,1017.07
2022-08-30T01:14:55.614Z,1017.10
2022-08-30T01:15:55.832Z,1017.09
2022-08-30T01:16:55.621Z,1017.10
2022-08-30T01:17:55.619Z,1017.10
2022-08-30T01:18:55.620Z,1017.07
2022-08-30T01:19:55.630Z,1017.05
2022-08-30T01:20:55.623Z,1017.07
2022-08-30T01:21:55.618Z,1017.09
2022-08-30T01:22:55.623Z,1017.08
2022-08-30T01:23:55.625Z,1017.03
2022-08-30T01:24:55.625Z,1017.10
2022-08-30T01:25:55.622Z,1017.09
2022-08-30T01:26:55.704Z,1017.09
2022-08-30T01:27:55.627Z,1017.09
2022-08-30T01:28:55.623Z,1017.08
2022-08-30T01:29:55.625Z,1017.08
2022-08-30T01:30:55.670Z,1017.09
2022-08-30T01:31:55.627Z,1017.08
2022-08-30T01:32:55.626Z,1017.11
2022-08-30T01:33:55.624Z,1017.12
2022-08-30T01:34:55.627Z,1017.14
2022-08-30T01:35:55.631Z,1017.14
2022-08-30T01:36:55.629Z,1017.16
2022-08-30T01:37:55.627Z,1017.16
2022-08-30T01:38:55.634Z,1017.16
2022-08-30T01:39:55.631Z,1017.13
2022-08-30T01:40:55.635Z,1017.10
2022-08-30T01:41:55.633Z,1017.13
2022-08-30T01:42:55.636Z,1017.11
2022-08-30T01:43:55.637Z,1017.07
2022-08-30T01:44:55.635Z,1017.05
2022-08-30T01:45:55.677Z,1017.08
2022-08-30T01:46:55.639Z,1017.06
2022-08-30T01:47:55.638Z,1017.07
2022-08-30T01:48:55.639Z,1017.07
2022-08-30T01:49:55.634Z,1017.07
2022-08-30T01:50:55.638Z,1017.09
2022-08-30T01:52:00.471Z,1017.06
2022-08-30T01:52:55.634Z,1017.08
2022-08-30T01:53:55.640Z,1017.09
2022-08-30T01:54:55.635Z,1017.08
2022-08-30T01:55:55.646Z,1017.07
2022-08-30T01:56:55.640Z,1017.07
2022-08-30T01:57:55.639Z,1017.09
2022-08-30T01:58:59.204Z,1017.07
2022-08-30T01:59:55.644Z,1017.03
2022-08-30T02:00:55.702Z,1017.02
2022-08-30T02:01:55.640Z,1017.06
2022-08-30T02:02:55.639Z,1017.03
2022-08-30T02:03:55.765Z,1017.00
2022-08-30T02:04:55.640Z,1017.00
2022-08-30T02:05:55.644Z,1016.99
2022-08-30T02:06:55.641Z,1016.97
2022-08-30T02:07:55.639Z,1016.97
2022-08-30T02:08:55.650Z,1016.96
2022-08-30T02:09:55.640Z,1016.97
2022-08-30T02:10:55.649Z,1016.96
2022-08-30T02:11:55.646Z,1016.95
2022-08-30T02:12:55.646Z,1016.94
2022-08-30T02:13:55.647Z,1016.94
2022-08-30T02:14:55.644Z,1016.92
2022-08-30T02:15:55.651Z,1016.94
2022-08-30T02:16:55.812Z,1016.92
2022-08-30T02:17:55.648Z,1016.92
2022-08-30T02:18:55.650Z,1016.92
2022-08-30T02:19:55.647Z,1016.96
2022-08-30T02:20:55.650Z,1016.97
2022-08-30T02:21:55.653Z,1016.98
2022-08-30T02:22:58.542Z,1016.96
2022-08-30T02:23:55.659Z,1016.96
2022-08-30T02:24:55.654Z,1016.95
2022-08-30T02:25:55.656Z,1017.01
2022-08-30T02:26:55.651Z,1017.02
2022-08-30T02:27:55.649Z,1017.05
2022-08-30T02:28:55.653Z,1017.03
2022-08-30T02:29:55.654Z,1017.00
2022-08-30T02:30:55.717Z,1016.99
2022-08-30T02:31:55.654Z,1017.02
2022-08-30T02:32:55.654Z,1016.99
2022-08-30T02:33:55.660Z,1016.99
2022-08-30T02:34:55.656Z,1016.98
2022-08-30T02:35:55.660Z,1016.99
2022-08-30T02:36:55.658Z,1017.02
2022-08-30T02:37:55.658Z,1016.97
2022-08-30T02:38:55.655Z,1017.02
2022-08-30T02:39:55.655Z,1017.03
2022-08-30T02:40:55.657Z,1017.03
2022-08-30T02:41:55.656Z,1017.01
2022-08-30T02:42:55.664Z,1016.99
2022-08-30T02:43:55.661Z,1017.01
2022-08-30T02:44:55.659Z,1017.01
2022-08-30T02:45:55.753Z,1017.03
2022-08-30T02:46:55.654Z,1017.01
2022-08-30T02:47:55.661Z,1017.03
2022-08-30T02:48:55.662Z,1017.01
2022-08-30T02:49:55.661Z,1017.00
2022-08-30T02:50:55.664Z,1017.01
2022-08-30T02:51:55.665Z,1017.01
2022-08-30T02:52:55.701Z,1016.99
2022-08-30T02:53:55.666Z,1016.99
2022-08-30T02:54:55.661Z,1016.97
2022-08-30T02:55:55.667Z,1017.00
2022-08-30T02:56:55.664Z,1017.00
2022-08-30T02:57:55.667Z,1016.97
2022-08-30T02:58:55.670Z,1017.00
2022-08-30T02:59:55.667Z,1016.98
2022-08-30T03:00:55.732Z,1017.02
2022-08-30T03:01:55.681Z,1016.96
2022-08-30T03:02:55.669Z,1016.97
2022-08-30T03:03:55.718Z,1016.94
2022-08-30T03:04:55.670Z,1016.97
2022-08-30T03:05:55.668Z,1016.98
2022-08-30T03:06:55.667Z,1016.97
2022-08-30T03:07:55.670Z,1016.95
2022-08-30T03:08:55.670Z,1016.99
2022-08-30T03:09:55.674Z,1016.93
2022-08-30T03:10:55.672Z,1016.93
2022-08-30T03:11:55.670Z,1016.93
2022-08-30T03:12:55.677Z,1016.94
2022-08-30T03:13:55.670Z,1016.93
2022-08-30T03:14:55.671Z,1016.94
2022-08-30T03:15:55.670Z,1016.97
2022-08-30T03:16:55.690Z,1016.95
2022-08-30T03:17:55.674Z,1016.98
2022-08-30T03:18:55.673Z,1017.02
2022-08-30T03:19:55.673Z,1016.98
2022-08-30T03:20:55.673Z,1016.97
2022-08-30T03:21:55.672Z,1016.99
2022-08-30T03:22:55.672Z,1016.98
2022-08-30T03:23:55.673Z,1016.97
2022-08-30T03:24:55.674Z,1016.92
2022-08-30T03:25:55.676Z,1016.98
2022-08-30T03:26:55.670Z,1016.97
2022-08-30T03:27:55.677Z,1016.98
2022-08-30T03:28:55.674Z,1017.01
2022-08-30T03:29:55.676Z,1016.99
2022-08-30T03:30:55.678Z,1017.00
2022-08-30T03:31:55.733Z,1016.96
2022-08-30T03:32:55.680Z,1016.98
2022-08-30T03:33:55.674Z,1017.00
2022-08-30T03:34:55.674Z,1016.95
2022-08-30T03:35:55.678Z,1016.99
2022-08-30T03:36:55.680Z,1017.00
2022-08-30T03:37:56.228Z,1017.02
2022-08-30T03:38:55.673Z,1017.06
2022-08-30T03:39:55.681Z,1017.02
2022-08-30T03:40:55.681Z,1017.06
2022-08-30T03:41:55.676Z,1017.09
2022-08-30T03:42:55.680Z,1017.07
2022-08-30T03:43:59.863Z,1017.10
2022-08-30T03:44:55.683Z,1017.09
2022-08-30T03:45:55.734Z,1017.08
2022-08-30T03:46:55.681Z,1017.06
2022-08-30T03:47:55.683Z,1017.10
2022-08-30T03:48:55.733Z,1017.09
2022-08-30T03:49:55.685Z,1017.10
2022-08-30T03:50:55.680Z,1017.07
2022-08-30T03:51:55.687Z,1017.09
2022-08-30T03:52:55.684Z,1017.11
2022-08-30T03:53:55.679Z,1017.10
2022-08-30T03:54:55.682Z,1017.16
2022-08-30T03:55:55.692Z,1017.13
2022-08-30T03:56:55.685Z,1017.15
2022-08-30T03:57:55.686Z,1017.16
2022-08-30T03:58:55.683Z,1017.16
2022-08-30T03:59:55.687Z,1017.20
2022-08-30T04:00:55.787Z,1017.16
2022-08-30T04:01:55.762Z,1017.12
2022-08-30T04:02:55.687Z,1017.18
2022-08-30T04:03:55.685Z,1017.14
2022-08-30T04:04:55.689Z,1017.12
2022-08-30T04:05:55.684Z,1017.13
2022-08-30T04:06:55.686Z,1017.12
2022-08-30T04:07:55.684Z,1017.14
2022-08-30T04:08:55.689Z,1017.14
2022-08-30T04:09:55.685Z,1017.15
2022-08-30T04:10:55.686Z,1017.15
2022-08-30T04:11:55.690Z,1017.14
2022-08-30T04:12:55.695Z,1017.17
2022-08-30T04:13:55.690Z,1017.24
2022-08-30T04:14:55.689Z,1017.21
2022-08-30T04:15:55.691Z,1017.26
2022-08-30T04:16:55.691Z,1017.24
2022-08-30T04:17:55.690Z,1017.26
2022-08-30T04:18:55.691Z,1017.25
2022-08-30T04:19:55.689Z,1017.25
2022-08-30T04:20:55.689Z,1017.26
2022-08-30T04:21:55.689Z,1017.29
2022-08-30T04:22:55.694Z,1017.26
2022-08-30T04:23:55.693Z,1017.28
2022-08-30T04:24:55.693Z,1017.31
2022-08-30T04:25:55.696Z,1017.29
2022-08-30T04:26:55.688Z,1017.30
2022-08-30T04:27:55.694Z,1017.35
2022-08-30T04:28:55.693Z,1017.32
2022-08-30T04:29:56.343Z,1017.33
2022-08-30T04:30:55.693Z,1017.34
2022-08-30T04:31:55.727Z,1017.33
2022-08-30T04:32:58.707Z,1017.34
2022-08-30T04:33:55.692Z,1017.35
2022-08-30T04:34:55.696Z,1017.38
2022-08-30T04:35:55.694Z,1017.37
2022-08-30T04:36:55.699Z,1017.36
2022-08-30T04:37:55.693Z,1017.38
2022-08-30T04:38:55.699Z,1017.39
2022-08-30T04:39:55.694Z,1017.42
2022-08-30T04:40:55.695Z,1017.45
2022-08-30T04:41:55.697Z,1017.45
2022-08-30T04:42:55.697Z,1017.46
2022-08-30T04:43:55.701Z,1017.44
2022-08-30T04:44:55.698Z,1017.47
2022-08-30T04:45:55.737Z,1017.44
2022-08-30T04:46:55.698Z,1017.42
2022-08-30T04:47:56.417Z,1017.39
2022-08-30T04:48:55.697Z,1017.38
2022-08-30T04:49:55.700Z,1017.41
2022-08-30T04:50:55.699Z,1017.39
2022-08-30T04:51:55.698Z,1017.38
2022-08-30T04:52:55.700Z,1017.43
2022-08-30T04:53:55.700Z,1017.45
2022-08-30T04:54:55.699Z,1017.45
2022-08-30T04:55:55.704Z,1017.45
2022-08-30T04:56:55.701Z,1017.46
2022-08-30T04:57:55.696Z,1017.45
2022-08-30T04:58:55.705Z,1017.44
2022-08-30T04:59:55.703Z,1017.47
2022-08-30T05:00:55.757Z,1017.45
2022-08-30T05:01:55.752Z,1017.46
2022-08-30T05:02:55.701Z,1017.48
2022-08-30T05:03:55.700Z,1017.49
2022-08-30T05:04:55.702Z,1017.52
2022-08-30T05:05:55.700Z,1017.50
2022-08-30T05:06:55.701Z,1017.47
2022-08-30T05:07:55.706Z,1017.50
2022-08-30T05:08:55.705Z,1017.49
2022-08-30T05:09:55.700Z,1017.52
2022-08-30T05:10:55.703Z,1017.48
2022-08-30T05:11:55.702Z,1017.53
2022-08-30T05:12:55.704Z,1017.56
2022-08-30T05:13:55.702Z,1017.49
2022-08-30T05:14:55.704Z,1017.51
2022-08-30T05:15:55.831Z,1017.54
2022-08-30T05:16:55.704Z,1017.55
2022-08-30T05:17:55.702Z,1017.55
2022-08-30T05:18:55.704Z,1017.57
2022-08-30T05:19:55.712Z,1017.55
2022-08-30T05:20:55.704Z,1017.57
2022-08-30T05:21:55.708Z,1017.58
2022-08-30T05:22:55.709Z,1017.59
2022-08-30T05:23:55.706Z,1017.55
2022-08-30T05:24:55.703Z,1017.59
2022-08-30T05:25:55.709Z,1017.59
2022-08-30T05:26:55.716Z,1017.62
2022-08-30T05:27:55.709Z,1017.64
2022-08-30T05:28:55.712Z,1017.61
2022-08-30T05:29:55.708Z,1017.67
2022-08-30T05:30:55.706Z,1017.65
2022-08-30T05:31:55.777Z,1017.68
2022-08-30T05:32:55.712Z,1017.69
2022-08-30T05:33:55.722Z,1017.69
2022-08-30T05:34:55.712Z,1017.72
2022-08-30T05:35:55.715Z,1017.72
2022-08-30T05:36:55.712Z,1017.73
2022-08-30T05:37:55.715Z,1017.69
2022-08-30T05:38:55.705Z,1017.68
2022-08-30T05:39:55.716Z,1017.67
2022-08-30T05:40:55.718Z,1017.70
2022-08-30T05:41:55.714Z,1017.74
2022-08-30T05:42:55.715Z,1017.71
2022-08-30T05:43:55.713Z,1017.72
2022-08-30T05:44:55.719Z,1017.69
2022-08-30T05:45:55.714Z,1017.71
2022-08-30T05:46:55.715Z,1017.70
2022-08-30T05:47:55.710Z,1017.72
2022-08-30T05:48:55.717Z,1017.73
2022-08-30T05:49:55.713Z,1017.77
2022-08-30T05:50:55.714Z,1017.77
2022-08-30T05:51:55.717Z,1017.77
2022-08-30T05:52:55.718Z,1017.77
2022-08-30T05:53:55.716Z,1017.77
2022-08-30T05:54:55.716Z,1017.80
2022-08-30T05:55:55.714Z,1017.80
2022-08-30T05:56:55.721Z,1017.82
2022-08-30T05:57:55.718Z,1017.83
2022-08-30T05:58:55.723Z,1017.79
2022-08-30T05:59:55.719Z,1017.80
2022-08-30T06:00:55.721Z,1017.81
2022-08-30T06:01:55.744Z,1017.82
2022-08-30T06:02:55.764Z,1017.88
2022-08-30T06:03:57.602Z,1017.89
2022-08-30T06:04:55.722Z,1017.89
2022-08-30T06:05:55.726Z,1017.89
2022-08-30T06:06:55.726Z,1017.88
2022-08-30T06:07:55.721Z,1017.88
2022-08-30T06:08:55.727Z,1017.88
2022-08-30T06:09:55.724Z,1017.88
2022-08-30T06:10:55.728Z,1017.91
2022-08-30T06:11:55.722Z,1017.90
2022-08-30T06:12:55.724Z,1017.92
2022-08-30T06:13:55.727Z,1017.92
2022-08-30T06:14:55.729Z,1017.93
2022-08-30T06:15:55.802Z,1017.88
2022-08-30T06:16:55.727Z,1017.90
2022-08-30T06:17:55.731Z,1017.95
2022-08-30T06:18:55.734Z,1017.99
2022-08-30T06:19:55.727Z,1017.97
2022-08-30T06:20:55.734Z,1018.02
2022-08-30T06:21:55.727Z,1018.03
2022-08-30T06:22:55.730Z,1017.98
2022-08-30T06:23:55.734Z,1017.94
2022-08-30T06:24:58.026Z,1017.97
2022-08-30T06:25:55.734Z,1017.94
2022-08-30T06:26:55.732Z,1017.94
2022-08-30T06:27:56.579Z,1017.92
2022-08-30T06:28:55.746Z,1017.91
2022-08-30T06:29:55.733Z,1017.89
2022-08-30T06:30:55.761Z,1017.89
2022-08-30T06:31:55.736Z,1017.87
2022-08-30T06:32:55.742Z,1017.89
2022-08-30T06:33:55.737Z,1017.93
2022-08-30T06:34:55.740Z,1017.97
2022-08-30T06:35:59.953Z,1017.91
2022-08-30T06:36:55.743Z,1017.96
2022-08-30T06:37:55.739Z,1017.99
2022-08-30T06:38:55.743Z,1017.99
2022-08-30T06:39:55.748Z,1018.01
2022-08-30T06:40:55.757Z,1018.00
2022-08-30T06:41:55.769Z,1018.01
2022-08-30T06:42:55.752Z,1018.04
2022-08-30T06:43:55.748Z,1018.02
2022-08-30T06:44:55.747Z,1018.04
2022-08-30T06:45:55.748Z,1018.03
2022-08-30T06:46:55.798Z,1018.05
2022-08-30T06:47:55.804Z,1018.11
2022-08-30T06:48:56.084Z,1018.10
2022-08-30T06:49:55.754Z,1018.10
2022-08-30T06:50:55.753Z,1018.06
2022-08-30T06:51:55.756Z,1018.02
2022-08-30T06:52:55.756Z,1018.08
2022-08-30T06:53:55.757Z,1018.08
2022-08-30T06:54:55.759Z,1018.08
2022-08-30T06:55:55.757Z,1018.09
2022-08-30T06:56:58.574Z,1018.15
2022-08-30T06:57:55.764Z,1018.12
2022-08-30T06:58:55.764Z,1018.17
2022-08-30T06:59:57.319Z,1018.16
2022-08-30T07:00:55.765Z,1018.20
2022-08-30T07:01:55.901Z,1018.27
2022-08-30T07:02:55.879Z,1018.28
2022-08-30T07:03:55.768Z,1018.31
2022-08-30T07:04:55.773Z,1018.28
2022-08-30T07:05:55.774Z,1018.31
2022-08-30T07:06:55.771Z,1018.31
2022-08-30T07:07:55.783Z,1018.30
2022-08-30T07:08:56.314Z,1018.29
2022-08-30T07:09:55.777Z,1018.37
2022-08-30T07:10:55.778Z,1018.42
2022-08-30T07:11:55.782Z,1018.47
2022-08-30T07:12:55.786Z,1018.46
2022-08-30T07:13:55.781Z,1018.42
2022-08-30T07:14:55.786Z,1018.38
2022-08-30T07:15:55.880Z,1018.35
2022-08-30T07:16:55.792Z,1018.37
2022-08-30T07:17:55.793Z,1018.33
2022-08-30T07:18:55.789Z,1018.30
2022-08-30T07:19:55.794Z,1018.33
2022-08-30T07:20:55.794Z,1018.31
2022-08-30T07:21:55.792Z,1018.32
2022-08-30T07:22:55.801Z,1018.27
2022-08-30T07:23:55.800Z,1018.31
2022-08-30T07:24:55.805Z,1018.28
2022-08-30T07:25:55.799Z,1018.27
2022-08-30T07:26:55.801Z,1018.32
2022-08-30T07:27:55.803Z,1018.30
2022-08-30T07:28:56.421Z,1018.32
2022-08-30T07:29:55.808Z,1018.34
2022-08-30T07:30:55.854Z,1018.37
2022-08-30T07:31:55.816Z,1018.33
2022-08-30T07:32:55.813Z,1018.38
2022-08-30T07:33:55.825Z,1018.36
2022-08-30T07:34:55.816Z,1018.34
2022-08-30T07:35:55.821Z,1018.37
2022-08-30T07:36:55.822Z,1018.38
2022-08-30T07:37:55.826Z,1018.40
2022-08-30T07:38:55.826Z,1018.39
2022-08-30T07:39:55.829Z,1018.39
2022-08-30T07:40:55.828Z,1018.40
2022-08-30T07:41:55.825Z,1018.39
2022-08-30T07:42:55.843Z,1018.44
2022-08-30T07:43:55.832Z,1018.46
2022-08-30T07:44:56.879Z,1018.49
2022-08-30T07:45:55.990Z,1018.48
2022-08-30T07:46:55.913Z,1018.49
2022-08-30T07:47:55.842Z,1018.49
2022-08-30T07:48:55.841Z,1018.52
2022-08-30T07:49:55.855Z,1018.48
2022-08-30T07:50:59.010Z,1018.48
2022-08-30T07:51:55.848Z,1018.46
2022-08-30T07:52:55.852Z,1018.48
2022-08-30T07:53:55.899Z,1018.49
2022-08-30T07:54:55.852Z,1018.44
2022-08-30T07:55:55.864Z,1018.42
2022-08-30T07:56:55.862Z,1018.44
2022-08-30T07:57:55.906Z,1018.49
2022-08-30T07:58:55.860Z,1018.57
2022-08-30T07:59:55.868Z,1018.53
2022-08-30T08:00:55.866Z,1018.53
2022-08-30T08:01:55.911Z,1018.54
2022-08-30T08:02:55.989Z,1018.60
2022-08-30T08:03:55.874Z,1018.80
2022-08-30T08:04:55.878Z,1018.77
2022-08-30T08:05:55.875Z,1018.64
2022-08-30T08:06:55.881Z,1018.56
2022-08-30T08:07:55.884Z,1018.60
2022-08-30T08:08:55.889Z,1018.60
2022-08-30T08:09:55.887Z,1018.58
2022-08-30T08:10:55.890Z,1018.52
2022-08-30T08:11:55.891Z,1018.51
2022-08-30T08:12:55.898Z,1018.54
2022-08-30T08:13:55.900Z,1018.54
2022-08-30T08:14:55.901Z,1018.57
2022-08-30T08:15:55.974Z,1018.56
2022-08-30T08:16:55.902Z,1018.63
2022-08-30T08:17:55.904Z,1018.58
2022-08-30T08:18:55.909Z,1018.62
2022-08-30T08:19:55.909Z,1018.63
2022-08-30T08:20:56.056Z,1018.69
2022-08-30T08:22:15.665Z,1018.62
2022-08-30T08:22:55.914Z,1018.62
2022-08-30T08:23:55.920Z,1018.74
2022-08-30T08:24:55.921Z,1018.87
2022-08-30T08:25:55.923Z,1018.99
2022-08-30T08:26:55.925Z,1019.14
2022-08-30T08:27:57.467Z,1023.57
2022-08-30T08:28:55.936Z,1021.43
2022-08-30T08:29:55.934Z,1021.17
2022-08-30T08:30:55.968Z,1018.94
2022-08-30T08:31:55.937Z,1018.90
2022-08-30T08:32:55.944Z,1019.02
2022-08-30T08:33:55.963Z,1019.04
2022-08-30T08:34:55.946Z,1019.13
2022-08-30T08:35:55.950Z,1020.32
2022-08-30T08:36:55.951Z,1020.58
2022-08-30T08:37:55.955Z,1019.22
2022-08-30T08:38:55.957Z,1019.45
2022-08-30T08:39:55.963Z,1020.27
2022-08-30T08:40:55.964Z,1019.50
2022-08-30T08:41:55.971Z,1018.91
2022-08-30T08:42:55.977Z,1018.97
2022-08-30T08:43:55.978Z,1018.87
2022-08-30T08:44:55.981Z,1018.89
2022-08-30T08:45:56.021Z,1018.89
2022-08-30T08:46:55.988Z,1018.94
2022-08-30T08:47:55.995Z,1018.99
2022-08-30T08:49:00.514Z,1018.88
2022-08-30T08:49:56.001Z,1018.80
2022-08-30T08:50:59.419Z,1018.86
2022-08-30T08:51:56.012Z,1018.84
2022-08-30T08:52:56.013Z,1018.87
2022-08-30T08:53:56.013Z,1018.87
2022-08-30T08:54:56.021Z,1018.88
2022-08-30T08:55:56.021Z,1018.89
2022-08-30T08:56:56.024Z,1018.83
2022-08-30T08:57:56.033Z,1018.84
2022-08-30T08:58:56.035Z,1018.84
2022-08-30T08:59:56.081Z,1018.90
2022-08-30T09:00:56.048Z,1018.98
2022-08-30T09:01:58.237Z,1019.06
2022-08-30T09:02:56.133Z,1019.14
2022-08-30T09:03:56.062Z,1019.20
2022-08-30T09:04:56.167Z,1019.21
2022-08-30T09:05:56.064Z,1019.14
2022-08-30T09:06:56.065Z,1019.15
2022-08-30T09:07:56.069Z,1019.09
2022-08-30T09:08:56.074Z,1019.11
2022-08-30T09:09:56.080Z,1019.07
2022-08-30T09:10:56.082Z,1019.11
2022-08-30T09:11:56.091Z,1019.07
2022-08-30T09:12:59.875Z,1019.00
2022-08-30T09:13:56.094Z,1018.95
2022-08-30T09:14:56.107Z,1018.84
2022-08-30T09:15:56.144Z,1018.87
2022-08-30T09:16:56.109Z,1018.84
2022-08-30T09:17:56.120Z,1018.88
2022-08-30T09:18:56.120Z,1019.00
2022-08-30T09:19:56.124Z,1019.07
2022-08-30T09:20:56.127Z,1019.05
2022-08-30T09:21:56.132Z,1019.00
2022-08-30T09:22:56.136Z,1018.99
2022-08-30T09:23:56.145Z,1018.97
2022-08-30T09:24:56.148Z,1018.93
2022-08-30T09:25:56.142Z,1018.97
2022-08-30T09:26:56.155Z,1018.89
2022-08-30T09:27:56.160Z,1018.92
2022-08-30T09:28:56.168Z,1018.89
2022-08-30T09:29:56.167Z,1018.92
2022-08-30T09:30:56.280Z,1018.92
2022-08-30T09:32:25.200Z,1018.97
2022-08-30T09:32:56.181Z,1018.92
2022-08-30T09:33:56.183Z,1018.91
2022-08-30T09:34:56.193Z,1018.89
2022-08-30T09:35:56.190Z,1018.88
2022-08-30T09:36:56.197Z,1018.89
2022-08-30T09:37:56.208Z,1018.85
2022-08-30T09:38:56.204Z,1018.83
2022-08-30T09:39:56.212Z,1018.87
2022-08-30T09:40:56.214Z,1018.84
2022-08-30T09:41:56.222Z,1018.84
2022-08-30T09:42:56.224Z,1018.87
2022-08-30T09:43:56.231Z,1018.87
2022-08-30T09:44:56.231Z,1018.90
2022-08-30T09:45:56.276Z,1018.93
2022-08-30T09:46:56.244Z,1018.95
2022-08-30T09:47:56.242Z,1018.92
2022-08-30T09:48:56.246Z,1018.94
2022-08-30T09:49:56.253Z,1018.95
2022-08-30T09:50:56.261Z,1018.99
2022-08-30T09:51:56.261Z,1018.96
2022-08-30T09:52:56.265Z,1018.98
2022-08-30T09:54:19.413Z,1018.91
2022-08-30T09:54:56.273Z,1018.92
2022-08-30T09:55:56.278Z,1018.92
2022-08-30T09:56:56.281Z,1018.92
2022-08-30T09:57:56.282Z,1018.91
2022-08-30T09:58:56.336Z,1018.94
2022-08-30T09:59:56.296Z,1018.95
2022-08-30T10:00:56.334Z,1019.00
2022-08-30T10:01:56.298Z,1018.99
2022-08-30T10:02:56.303Z,1019.02
2022-08-30T10:03:56.306Z,1019.00
2022-08-30T10:04:56.310Z,1019.01
2022-08-30T10:05:56.455Z,1019.02
2022-08-30T10:06:56.323Z,1019.00
2022-08-30T10:07:56.320Z,1019.03
2022-08-30T10:08:56.326Z,1018.99
2022-08-30T10:09:56.328Z,1019.06
2022-08-30T10:10:56.335Z,1019.03
2022-08-30T10:11:56.341Z,1019.07
2022-08-30T10:12:56.338Z,1019.10
2022-08-30T10:13:56.348Z,1019.05
2022-08-30T10:14:56.345Z,1019.09
2022-08-30T10:15:56.352Z,1019.08
2022-08-30T10:16:56.361Z,1019.05
2022-08-30T10:17:56.373Z,1019.07
2022-08-30T10:18:56.373Z,1019.01
2022-08-30T10:19:56.367Z,1019.02
2022-08-30T10:20:56.372Z,1019.02
2022-08-30T10:21:56.380Z,1019.02
2022-08-30T10:22:58.668Z,1018.99
2022-08-30T10:23:56.389Z,1018.98
2022-08-30T10:24:56.390Z,1018.98
2022-08-30T10:25:56.394Z,1018.99
2022-08-30T10:26:56.399Z,1019.00
2022-08-30T10:27:56.406Z,1019.01
2022-08-30T10:28:56.404Z,1019.05
2022-08-30T10:29:56.410Z,1019.03
2022-08-30T10:30:56.415Z,1019.09
2022-08-30T10:31:56.421Z,1019.06
2022-08-30T10:32:56.435Z,1019.04
2022-08-30T10:33:56.428Z,1019.07
2022-08-30T10:34:56.436Z,1019.13
2022-08-30T10:35:56.439Z,1019.19
2022-08-30T10:36:56.443Z,1019.27
2022-08-30T10:37:56.447Z,1019.22
2022-08-30T10:38:56.453Z,1019.20
2022-08-30T10:39:56.516Z,1019.23
2022-08-30T10:40:56.464Z,1019.22
2022-08-30T10:41:56.464Z,1019.15
2022-08-30T10:42:56.475Z,1019.10
2022-08-30T10:43:56.480Z,1019.06
2022-08-30T10:44:56.482Z,1019.06
2022-08-30T10:45:56.490Z,1019.07
2022-08-30T10:46:56.498Z,1019.05
2022-08-30T10:47:56.500Z,1019.04
2022-08-30T10:48:56.508Z,1019.05
2022-08-30T10:49:56.516Z,1019.07
2022-08-30T10:50:56.520Z,1019.13
2022-08-30T10:51:58.767Z,1019.24
2022-08-30T10:52:56.532Z,1019.19
2022-08-30T10:53:56.541Z,1019.23
2022-08-30T10:54:56.540Z,1019.15
2022-08-30T10:55:56.549Z,1019.05
2022-08-30T10:56:56.560Z,1019.01
2022-08-30T10:57:56.561Z,1018.98
2022-08-30T10:58:56.623Z,1018.98
2022-08-30T10:59:56.581Z,1018.97
2022-08-30T11:00:56.623Z,1018.96
2022-08-30T11:01:56.590Z,1018.99
2022-08-30T11:02:56.590Z,1018.95
2022-08-30T11:03:56.602Z,1018.95
2022-08-30T11:04:56.610Z,1018.98
2022-08-30T11:05:56.613Z,1018.93
2022-08-30T11:06:56.622Z,1018.94
2022-08-30T11:07:56.627Z,1018.96
2022-08-30T11:08:56.634Z,1018.94
2022-08-30T11:09:56.645Z,1018.94
2022-08-30T11:10:56.646Z,1018.89
2022-08-30T11:11:56.657Z,1018.91
2022-08-30T11:12:56.659Z,1018.90
2022-08-30T11:13:57.533Z,1018.89
2022-08-30T11:14:56.675Z,1018.91
2022-08-30T11:15:56.681Z,1018.87
2022-08-30T11:16:56.690Z,1018.88
2022-08-30T11:17:56.711Z,1018.88
2022-08-30T11:18:56.701Z,1018.87
2022-08-30T11:19:56.707Z,1018.83
2022-08-30T11:20:56.713Z,1018.81
2022-08-30T11:21:56.721Z,1018.84
2022-08-30T11:22:56.727Z,1018.84
2022-08-30T11:23:56.738Z,1018.83
2022-08-30T11:24:56.741Z,1018.82
2022-08-30T11:25:58.083Z,1018.80
2022-08-30T11:26:56.752Z,1018.82
2022-08-30T11:27:56.762Z,1018.77
2022-08-30T11:28:56.767Z,1018.79
2022-08-30T11:29:56.769Z,1018.75
2022-08-30T11:30:56.775Z,1018.70
2022-08-30T11:31:56.785Z,1018.76
2022-08-30T11:32:56.794Z,1018.75
2022-08-30T11:33:56.796Z,1018.75
2022-08-30T11:34:56.800Z,1018.74
2022-08-30T11:35:56.809Z,1018.68
2022-08-30T11:36:56.814Z,1018.66
2022-08-30T11:37:56.818Z,1018.65
2022-08-30T11:38:56.825Z,1018.64
2022-08-30T11:39:56.833Z,1018.65
2022-08-30T11:40:56.853Z,1018.65
2022-08-30T11:41:56.845Z,1018.61
2022-08-30T11:42:56.852Z,1018.57
2022-08-30T11:43:56.860Z,1018.53
2022-08-30T11:44:56.866Z,1018.58
2022-08-30T11:45:56.945Z,1018.58
2022-08-30T11:46:56.877Z,1018.55
2022-08-30T11:47:56.883Z,1018.57
2022-08-30T11:48:56.886Z,1018.56
2022-08-30T11:49:56.891Z,1018.51
2022-08-30T11:50:56.901Z,1018.53
2022-08-30T11:52:26.387Z,1018.51
2022-08-30T11:52:56.910Z,1018.56
2022-08-30T11:53:56.919Z,1018.55
2022-08-30T11:54:56.918Z,1018.54
2022-08-30T11:55:56.927Z,1018.56
2022-08-30T11:56:56.931Z,1018.60
2022-08-30T11:57:56.941Z,1018.64
2022-08-30T11:58:56.945Z,1018.61
2022-08-30T11:59:56.952Z,1018.64
2022-08-30T12:00:56.960Z,1018.63
2022-08-30T12:01:57.066Z,1018.63
2022-08-30T12:02:59.149Z,1018.63
2022-08-30T12:03:56.975Z,1018.64
2022-08-30T12:04:56.979Z,1018.62
2022-08-30T12:05:58.945Z,1018.59